createdAt,value
2023-04-10T00:01:16.206Z,3.40
2023-04-10T00:03:44.159Z,3.38
2023-04-10T00:06:11.826Z,3.13
2023-04-10T00:08:39.359Z,3.31
2023-04-10T00:11:06.927Z,3.18
2023-04-10T00:13:34.453Z,3.13
2023-04-10T00:16:03.387Z,3.30
2023-04-10T00:18:30.940Z,3.25
2023-04-10T00:20:58.460Z,3.16
2023-04-10T00:23:26.338Z,3.27
2023-04-10T00:25:53.888Z,2.83
2023-04-10T00:28:21.392Z,2.78
2023-04-10T00:30:48.915Z,2.82
2023-04-10T00:33:17.903Z,2.85
2023-04-10T00:35:45.571Z,3.19
2023-04-10T00:38:13.660Z,3.15
2023-04-10T00:40:41.648Z,3.17
2023-04-10T00:43:09.299Z,2.85
2023-04-10T00:45:36.825Z,2.63
2023-04-10T00:48:04.608Z,2.59
2023-04-10T00:50:33.486Z,2.62
2023-04-10T00:53:01.116Z,2.69
2023-04-10T00:55:29.004Z,2.59
2023-04-10T00:57:56.569Z,2.59
2023-04-10T01:00:24.077Z,2.47
2023-04-10T01:02:52.035Z,2.47
2023-04-10T01:05:19.746Z,2.49
2023-04-10T01:07:52.387Z,2.53
2023-04-10T01:10:21.534Z,2.34
2023-04-10T01:12:52.830Z,2.47
2023-04-10T01:15:21.088Z,2.40
2023-04-10T01:17:50.868Z,2.32
2023-04-10T01:20:20.645Z,2.36
2023-04-10T01:22:53.712Z,2.27
2023-04-10T01:25:28.733Z,2.32
2023-04-10T01:28:00.243Z,2.22
2023-04-10T01:30:29.142Z,2.33
2023-04-10T01:32:57.084Z,2.24
2023-04-10T01:35:24.775Z,2.31
2023-04-10T01:37:52.315Z,2.25
2023-04-10T01:40:20.477Z,2.17
2023-04-10T01:42:49.806Z,2.10
2023-04-10T01:45:21.394Z,2.21
2023-04-10T01:47:52.957Z,2.18
2023-04-10T01:50:21.033Z,2.25
2023-04-10T01:52:49.437Z,2.29
2023-04-10T01:55:20.912Z,2.38
2023-04-10T01:57:56.549Z,2.19
2023-04-10T02:00:25.748Z,2.28
2023-04-10T02:02:55.023Z,2.07
2023-04-10T02:05:23.181Z,2.16
2023-04-10T02:07:53.769Z,2.09
2023-04-10T02:10:23.478Z,2.07
2023-04-10T02:12:54.072Z,1.79
2023-04-10T02:15:24.671Z,1.83
2023-04-10T02:17:53.909Z,1.84
2023-04-10T02:20:22.385Z,1.85
2023-04-10T02:22:50.103Z,1.89
2023-04-10T02:25:17.813Z,1.76
2023-04-10T02:27:45.951Z,1.88
2023-04-10T02:30:13.660Z,1.91
2023-04-10T02:32:42.931Z,1.83
2023-04-10T02:35:12.054Z,1.60
2023-04-10T02:37:39.837Z,1.56
2023-04-10T02:40:10.068Z,1.93
2023-04-10T02:42:47.526Z,1.92
2023-04-10T02:45:15.391Z,1.85
2023-04-10T02:47:44.989Z,1.97
2023-04-10T02:50:14.164Z,1.96
2023-04-10T02:52:45.536Z,1.69
2023-04-10T02:55:13.360Z,1.76
2023-04-10T02:57:42.618Z,1.98
2023-04-10T03:00:11.713Z,2.11
2023-04-10T03:03:00.961Z,1.91
2023-04-10T03:05:36.479Z,1.49
2023-04-10T03:08:04.585Z,1.82
2023-04-10T03:10:32.348Z,1.67
2023-04-10T03:13:00.329Z,1.65
2023-04-10T03:15:28.144Z,1.66
2023-04-10T03:17:56.656Z,1.94
2023-04-10T03:20:24.560Z,1.99
2023-04-10T03:22:53.662Z,2.11
2023-04-10T03:25:21.836Z,2.00
2023-04-10T03:27:49.618Z,2.27
2023-04-10T03:30:18.306Z,1.81
2023-04-10T03:32:46.398Z,1.56
2023-04-10T03:35:14.128Z,1.53
2023-04-10T03:37:42.292Z,1.40
2023-04-10T03:40:12.007Z,1.25
2023-04-10T03:42:39.872Z,1.60
2023-04-10T03:45:09.260Z,1.47
2023-04-10T03:47:37.041Z,1.40
2023-04-10T03:50:08.294Z,1.51
2023-04-10T03:52:42.779Z,1.64
2023-04-10T03:55:19.065Z,1.66
2023-04-10T03:57:47.380Z,1.66
2023-04-10T04:00:16.742Z,1.62
2023-04-10T04:02:51.009Z,1.84
2023-04-10T04:05:39.290Z,1.96
2023-04-10T04:08:23.633Z,2.11
2023-04-10T04:11:18.723Z,2.37
2023-04-10T04:14:02.025Z,2.14
2023-04-10T04:16:48.351Z,1.91
2023-04-10T04:19:51.224Z,1.63
2023-04-10T04:22:19.004Z,1.46
2023-04-10T04:25:08.908Z,1.38
2023-04-10T04:28:11.957Z,1.21
2023-04-10T04:30:58.081Z,1.38
2023-04-10T04:33:44.724Z,1.31
2023-04-10T04:36:32.767Z,1.19
2023-04-10T04:39:12.482Z,1.28
2023-04-10T04:42:05.139Z,1.21
2023-04-10T04:44:51.941Z,1.20
2023-04-10T04:47:28.474Z,1.25
2023-04-10T04:50:09.059Z,1.32
2023-04-10T04:52:55.271Z,1.26
2023-04-10T04:55:42.183Z,1.32
2023-04-10T04:58:30.337Z,1.48
2023-04-10T05:01:38.041Z,1.52
2023-04-10T05:04:20.675Z,1.92
2023-04-10T05:07:11.870Z,2.01
2023-04-10T05:09:56.185Z,2.04
2023-04-10T05:13:02.025Z,1.93
2023-04-10T05:15:39.417Z,1.92
2023-04-10T05:18:31.486Z,1.97
2023-04-10T05:21:07.459Z,1.93
2023-04-10T05:23:37.986Z,2.11
2023-04-10T05:26:38.277Z,2.07
2023-04-10T05:29:27.465Z,2.16
2023-04-10T05:32:21.079Z,2.24
2023-04-10T05:35:03.114Z,2.30
2023-04-10T05:37:39.555Z,2.38
2023-04-10T05:40:27.359Z,2.35
2023-04-10T05:43:10.666Z,2.44
2023-04-10T05:45:57.024Z,2.56
2023-04-10T05:48:47.776Z,2.62
2023-04-10T05:51:22.696Z,2.73
2023-04-10T05:54:05.839Z,2.86
2023-04-10T05:56:49.570Z,2.90
2023-04-10T05:59:40.311Z,3.07
2023-04-10T06:02:28.685Z,3.10
2023-04-10T06:04:56.972Z,3.19
2023-04-10T06:07:27.400Z,3.30
2023-04-10T06:09:55.129Z,3.42
2023-04-10T06:12:22.921Z,3.52
2023-04-10T06:14:50.926Z,3.71
2023-04-10T06:17:21.743Z,3.72
2023-04-10T06:19:49.753Z,3.85
2023-04-10T06:22:27.715Z,3.83
2023-04-10T06:24:57.267Z,4.11
2023-04-10T06:27:25.019Z,4.12
2023-04-10T06:29:52.913Z,4.32
2023-04-10T06:32:24.492Z,4.51
2023-04-10T06:34:52.962Z,4.36
2023-04-10T06:37:21.028Z,4.50
2023-04-10T06:39:48.812Z,4.56
2023-04-10T06:42:17.906Z,4.67
2023-04-10T06:45:00.383Z,4.79
2023-04-10T06:47:28.111Z,4.90
2023-04-10T06:49:55.880Z,5.03
2023-04-10T06:52:23.610Z,5.11
2023-04-10T06:54:51.332Z,5.29
2023-04-10T06:57:20.426Z,5.42
2023-04-10T06:59:48.162Z,5.57
2023-04-10T07:02:15.937Z,5.89
2023-04-10T07:04:43.733Z,6.23
2023-04-10T07:07:13.352Z,6.21
2023-04-10T07:09:41.209Z,6.32
2023-04-10T07:12:08.940Z,6.74
2023-04-10T07:14:38.060Z,6.94
2023-04-10T07:17:05.792Z,7.19
2023-04-10T07:19:33.545Z,7.38
2023-04-10T07:22:01.411Z,7.40
2023-04-10T07:24:29.159Z,7.62
2023-04-10T07:26:58.141Z,7.53
2023-04-10T07:29:25.873Z,7.78
2023-04-10T07:31:55.155Z,7.91
2023-04-10T07:34:22.916Z,8.06
2023-04-10T07:36:50.641Z,8.59
2023-04-10T07:39:18.551Z,9.09
2023-04-10T07:41:46.291Z,8.64
2023-04-10T07:44:14.653Z,8.55
2023-04-10T07:46:42.514Z,8.58
2023-04-10T07:49:12.149Z,8.93
2023-04-10T07:51:39.868Z,8.70
2023-04-10T07:54:07.601Z,8.89
2023-04-10T07:56:35.363Z,8.85
2023-04-10T07:59:03.650Z,8.88
2023-04-10T08:01:31.335Z,9.56
2023-04-10T08:03:59.288Z,10.24
2023-04-10T08:06:28.563Z,10.60
2023-04-10T08:08:56.505Z,10.60
2023-04-10T08:11:25.219Z,11.64
2023-04-10T08:13:52.950Z,10.81
2023-04-10T08:16:21.779Z,10.92
2023-04-10T08:18:49.411Z,10.75
2023-04-10T08:21:16.909Z,10.91
2023-04-10T08:23:46.790Z,10.84
2023-04-10T08:26:14.370Z,11.38
2023-04-10T08:28:46.809Z,11.01
2023-04-10T08:31:14.517Z,11.54
2023-04-10T08:33:42.683Z,12.28
2023-04-10T08:36:10.306Z,12.59
2023-04-10T08:38:37.950Z,12.16
2023-04-10T08:41:07.235Z,12.65
2023-04-10T08:43:35.533Z,12.83
2023-04-10T08:46:03.103Z,12.76
2023-04-10T08:48:32.386Z,13.00
2023-04-10T08:51:00.828Z,13.09
2023-04-10T08:53:28.409Z,13.23
2023-04-10T08:55:55.949Z,13.33
2023-04-10T08:58:24.886Z,13.72
2023-04-10T09:00:52.413Z,13.31
2023-04-10T09:03:20.403Z,12.93
2023-04-10T09:05:48.006Z,12.86
2023-04-10T09:08:15.853Z,13.50
2023-04-10T09:10:43.394Z,12.59
2023-04-10T09:13:11.186Z,12.96
2023-04-10T09:18:45.190Z,12.96
2023-04-10T09:21:13.186Z,13.02
2023-04-10T09:23:40.786Z,12.90
2023-04-10T09:26:23.271Z,12.92
2023-04-10T09:28:57.072Z,12.81
2023-04-10T09:31:34.292Z,12.67
2023-04-10T09:34:10.208Z,13.38
2023-04-10T09:36:38.063Z,13.79
2023-04-10T09:39:05.904Z,14.36
2023-04-10T09:41:33.459Z,14.65
2023-04-10T09:44:07.837Z,14.38
2023-04-10T09:46:35.541Z,14.35
2023-04-10T09:49:05.322Z,13.76
2023-04-10T09:51:35.574Z,14.06
2023-04-10T09:54:03.478Z,14.62
2023-04-10T09:56:31.233Z,14.87
2023-04-10T09:58:59.330Z,14.50
2023-04-10T10:01:27.275Z,14.67
2023-04-10T10:03:55.313Z,14.95
2023-04-10T10:06:23.308Z,14.58
2023-04-10T10:08:52.300Z,15.12
2023-04-10T10:11:20.120Z,15.20
2023-04-10T10:13:48.982Z,15.59
2023-04-10T10:16:17.857Z,15.61
2023-04-10T10:18:46.082Z,16.15
2023-04-10T10:21:14.236Z,15.46
2023-04-10T10:23:41.802Z,14.98
2023-04-10T10:26:10.959Z,16.03
2023-04-10T10:28:39.354Z,16.10
2023-04-10T10:31:07.151Z,16.06
2023-04-10T10:33:36.439Z,15.68
2023-04-10T10:36:04.611Z,15.98
2023-04-10T10:38:32.205Z,15.71
2023-04-10T10:41:01.818Z,15.55
2023-04-10T10:43:34.426Z,14.74
2023-04-10T10:46:03.165Z,15.54
2023-04-10T10:48:30.851Z,15.59
2023-04-10T10:50:59.208Z,14.74
2023-04-10T10:53:32.282Z,14.82
2023-04-10T10:55:59.830Z,15.93
2023-04-10T10:58:42.278Z,16.01
2023-04-10T11:01:11.252Z,16.29
2023-04-10T11:03:39.167Z,16.27
2023-04-10T11:06:08.142Z,15.81
2023-04-10T11:08:42.580Z,15.91
2023-04-10T11:11:10.867Z,15.58
2023-04-10T11:13:38.646Z,15.65
2023-04-10T11:16:06.958Z,15.68
2023-04-10T11:19:14.851Z,15.99
2023-04-10T11:22:04.104Z,15.93
2023-04-10T11:24:47.123Z,14.96
2023-04-10T11:27:29.614Z,15.20
2023-04-10T11:29:58.290Z,14.73
2023-04-10T11:32:26.258Z,14.77
2023-04-10T11:34:53.815Z,14.80
2023-04-10T11:37:25.710Z,15.11
2023-04-10T11:40:03.867Z,15.11
2023-04-10T11:42:31.464Z,15.02
2023-04-10T11:44:59.900Z,15.44
2023-04-10T11:47:27.602Z,15.46
2023-04-10T11:49:58.861Z,15.95
2023-04-10T11:52:27.833Z,16.09
2023-04-10T11:54:55.694Z,16.57
2023-04-10T11:57:23.579Z,16.01
2023-04-10T11:59:51.318Z,16.14
2023-04-10T12:02:19.032Z,16.00
2023-04-10T12:04:46.940Z,16.18
2023-04-10T12:07:14.533Z,15.98
2023-04-10T12:09:48.388Z,16.24
2023-04-10T12:12:15.980Z,16.08
2023-04-10T12:14:43.624Z,16.13
2023-04-10T12:17:11.638Z,16.96
2023-04-10T12:19:39.451Z,16.97
2023-04-10T12:22:07.748Z,16.75
2023-04-10T12:24:43.447Z,16.38
2023-04-10T12:27:16.548Z,16.29
2023-04-10T12:29:44.179Z,16.53
2023-04-10T12:32:12.096Z,16.31
2023-04-10T12:34:39.699Z,16.56
2023-04-10T12:37:07.510Z,16.69
2023-04-10T12:39:35.524Z,17.13
2023-04-10T12:46:11.134Z,16.69
2023-04-10T12:48:38.900Z,17.00
2023-04-10T12:51:06.664Z,16.89
2023-04-10T12:53:43.455Z,16.88
2023-04-10T12:56:12.283Z,16.90
2023-04-10T12:58:39.775Z,16.62
2023-04-10T13:01:07.907Z,16.71
2023-04-10T13:03:37.148Z,16.55
2023-04-10T13:06:06.234Z,16.55
2023-04-10T13:08:33.777Z,16.53
2023-04-10T13:11:03.299Z,16.28
2023-04-10T13:13:31.490Z,16.44
2023-04-10T13:15:59.159Z,16.54
2023-04-10T13:18:26.913Z,16.79
2023-04-10T13:20:55.842Z,16.43
2023-04-10T13:23:23.391Z,16.21
2023-04-10T13:25:51.149Z,16.14
2023-04-10T13:28:18.980Z,16.18
2023-04-10T13:30:46.545Z,16.73
2023-04-10T13:33:14.121Z,16.93
2023-04-10T13:39:36.659Z,17.12
2023-04-10T13:42:04.132Z,16.42
2023-04-10T13:44:32.334Z,16.80
2023-04-10T13:46:59.891Z,17.08
2023-04-10T13:49:30.268Z,16.62
2023-04-10T13:51:57.742Z,16.62
2023-04-10T13:54:25.262Z,16.92
2023-04-10T13:56:54.944Z,16.68
2023-04-10T13:59:22.576Z,16.67
2023-04-10T14:06:17.511Z,16.42
2023-04-10T14:08:45.038Z,16.43
2023-04-10T14:11:12.450Z,16.43
2023-04-10T14:13:41.280Z,16.09
2023-04-10T14:16:09.251Z,16.15
2023-04-10T14:18:37.246Z,16.00
2023-04-10T14:21:05.054Z,16.36
2023-04-10T14:23:32.628Z,16.39
2023-04-10T14:26:00.513Z,16.58
2023-04-10T14:28:29.230Z,16.12
2023-04-10T14:30:58.101Z,16.17
2023-04-10T14:33:26.284Z,16.33
2023-04-10T14:35:53.996Z,16.27
2023-04-10T14:38:21.770Z,16.45
2023-04-10T14:40:50.373Z,16.18
2023-04-10T14:43:19.470Z,16.30
2023-04-10T14:45:47.052Z,16.24
2023-04-10T14:48:16.176Z,16.32
2023-04-10T14:50:43.857Z,16.55
2023-04-10T14:53:11.456Z,16.47
2023-04-10T14:55:39.002Z,16.61
2023-04-10T14:58:08.948Z,16.32
2023-04-10T15:00:36.525Z,16.05
2023-04-10T15:03:05.965Z,16.17
2023-04-10T15:05:34.967Z,16.11
2023-04-10T15:08:02.531Z,15.73
2023-04-10T15:10:30.112Z,15.65
2023-04-10T15:12:57.684Z,15.87
2023-04-10T15:15:25.247Z,15.86
2023-04-10T15:17:52.787Z,15.71
2023-04-10T15:20:20.346Z,15.59
2023-04-10T15:22:49.187Z,15.56
2023-04-10T15:25:16.843Z,15.60
2023-04-10T15:27:44.448Z,15.46
2023-04-10T15:30:12.576Z,15.31
2023-04-10T15:32:40.263Z,15.09
2023-04-10T15:35:10.759Z,14.93
2023-04-10T15:37:38.275Z,15.09
2023-04-10T15:40:08.014Z,15.32
2023-04-10T15:42:35.776Z,15.20
2023-04-10T15:45:03.242Z,15.35
2023-04-10T15:47:30.847Z,15.65
2023-04-10T15:49:58.415Z,15.51
2023-04-10T15:52:26.138Z,15.64
2023-04-10T15:54:53.754Z,15.42
2023-04-10T15:57:22.696Z,15.31
2023-04-10T15:59:52.287Z,15.62
2023-04-10T16:02:19.956Z,15.64
2023-04-10T16:04:47.552Z,15.93
2023-04-10T16:07:15.206Z,15.38
2023-04-10T16:09:42.720Z,15.33
2023-04-10T16:12:10.354Z,14.99
2023-04-10T16:14:39.242Z,15.16
2023-04-10T16:17:06.771Z,15.02
2023-04-10T16:19:34.330Z,14.83
2023-04-10T16:22:02.122Z,14.69
2023-04-10T16:24:29.691Z,14.62
2023-04-10T16:26:57.257Z,14.83
2023-04-10T16:29:24.856Z,14.69
2023-04-10T16:31:53.823Z,14.70
2023-04-10T16:34:21.455Z,14.43
2023-04-10T16:36:49.039Z,14.60
2023-04-10T16:39:16.597Z,14.50
2023-04-10T16:41:44.736Z,14.45
2023-04-10T16:44:12.316Z,14.77
2023-04-10T16:46:39.963Z,14.58
2023-04-10T16:49:11.561Z,14.75
2023-04-10T16:51:39.349Z,14.12
2023-04-10T16:54:07.155Z,14.36
2023-04-10T16:56:34.903Z,14.88
2023-04-10T16:59:02.473Z,14.08
2023-04-10T17:01:30.939Z,14.24
2023-04-10T17:03:58.901Z,13.85
2023-04-10T17:06:27.907Z,13.99
2023-04-10T17:08:55.831Z,14.40
2023-04-10T17:11:23.548Z,14.39
2023-04-10T17:13:51.132Z,14.13
2023-04-10T17:16:18.907Z,14.07
2023-04-10T17:18:46.556Z,14.09
2023-04-10T17:21:14.160Z,13.82
2023-04-10T17:23:43.175Z,13.79
2023-04-10T17:26:13.326Z,13.86
2023-04-10T17:28:40.960Z,13.72
2023-04-10T17:31:08.598Z,13.80
2023-04-10T17:33:36.192Z,13.42
2023-04-10T17:36:03.843Z,13.95
2023-04-10T17:38:38.610Z,13.12
2023-04-10T17:41:08.045Z,13.28
2023-04-10T17:43:35.780Z,13.05
2023-04-10T17:46:03.507Z,13.13
2023-04-10T17:48:31.307Z,12.82
2023-04-10T17:51:01.200Z,12.85
2023-04-10T17:53:28.788Z,12.76
2023-04-10T17:55:56.433Z,12.73
2023-04-10T17:58:25.480Z,12.62
2023-04-10T18:00:53.047Z,12.47
2023-04-10T18:03:21.402Z,12.68
2023-04-10T18:05:49.261Z,12.44
2023-04-10T18:08:16.965Z,12.50
2023-04-10T18:10:44.660Z,12.65
2023-04-10T18:13:12.417Z,12.73
2023-04-10T18:15:41.393Z,12.39
2023-04-10T18:18:09.036Z,12.36
2023-04-10T18:20:37.711Z,12.43
2023-04-10T18:23:06.439Z,12.37
2023-04-10T18:25:34.274Z,12.57
2023-04-10T18:28:13.014Z,12.25
2023-04-10T18:30:43.262Z,11.90
2023-04-10T18:33:11.454Z,11.92
2023-04-10T18:35:39.343Z,11.85
2023-04-10T18:38:07.211Z,12.12
2023-04-10T18:40:36.856Z,12.00
2023-04-10T18:43:04.790Z,11.93
2023-04-10T18:45:36.190Z,11.86
2023-04-10T18:48:05.317Z,11.97
2023-04-10T18:50:34.962Z,11.86
2023-04-10T18:53:02.734Z,11.99
2023-04-10T18:55:30.618Z,11.71
2023-04-10T18:57:58.177Z,11.68
2023-04-10T19:00:25.867Z,11.68
2023-04-10T19:02:54.131Z,11.54
2023-04-10T19:05:23.243Z,11.66
2023-04-10T19:08:02.995Z,11.77
2023-04-10T19:10:32.858Z,11.67
2023-04-10T19:13:00.458Z,11.70
2023-04-10T19:15:28.351Z,11.68
2023-04-10T19:17:55.944Z,11.48
2023-04-10T19:20:50.915Z,11.48
2023-04-10T19:23:12.958Z,11.77
2023-04-10T19:25:40.997Z,11.50
2023-04-10T19:28:08.588Z,10.99
2023-04-10T19:30:36.361Z,11.05
2023-04-10T19:33:06.188Z,10.87
2023-04-10T19:35:35.455Z,10.59
2023-04-10T19:38:03.394Z,10.58
2023-04-10T19:40:32.314Z,10.59
2023-04-10T19:43:02.056Z,10.45
2023-04-10T19:45:30.104Z,10.83
2023-04-10T19:47:57.790Z,10.92
2023-04-10T19:50:25.443Z,10.69
2023-04-10T19:52:55.547Z,10.91
2023-04-10T19:55:23.242Z,10.80
2023-04-10T19:57:50.883Z,10.68
2023-04-10T20:00:18.770Z,10.68
2023-04-10T20:02:46.781Z,10.73
2023-04-10T20:05:14.785Z,10.27
2023-04-10T20:07:42.421Z,10.34
2023-04-10T20:10:12.022Z,10.45
2023-04-10T20:12:39.595Z,10.61
2023-04-10T20:15:08.449Z,10.43
2023-04-10T20:17:36.199Z,10.45
2023-04-10T20:20:04.102Z,10.62
2023-04-10T20:22:31.816Z,10.22
2023-04-10T20:24:59.392Z,10.29
2023-04-10T20:27:28.333Z,10.47
2023-04-10T20:29:55.905Z,10.36
2023-04-10T20:32:23.438Z,10.23
2023-04-10T20:34:51.045Z,10.32
2023-04-10T20:37:21.981Z,10.39
2023-04-10T20:39:49.680Z,10.23
2023-04-10T20:42:17.695Z,10.42
2023-04-10T20:44:46.646Z,10.65
2023-04-10T20:47:14.226Z,10.72
2023-04-10T20:49:41.873Z,10.56
2023-04-10T20:52:09.423Z,10.62
2023-04-10T20:54:36.937Z,10.63
2023-04-10T20:57:05.939Z,10.49
2023-04-10T20:59:33.530Z,10.56
2023-04-10T21:02:02.496Z,10.78
2023-04-10T21:04:30.106Z,10.80
2023-04-10T21:06:57.602Z,10.68
2023-04-10T21:09:25.247Z,10.85
2023-04-10T21:11:52.733Z,10.41
2023-04-10T21:14:20.285Z,10.44
2023-04-10T21:16:48.419Z,10.56
2023-04-10T21:19:18.626Z,10.68
2023-04-10T21:21:46.241Z,10.73
2023-04-10T21:24:13.941Z,10.91
2023-04-10T21:26:41.640Z,10.73
2023-04-10T21:29:09.372Z,10.34
2023-04-10T21:31:37.131Z,10.26
2023-04-10T21:34:04.846Z,9.75
2023-04-10T21:36:35.033Z,9.86
2023-04-10T21:39:02.769Z,10.03
2023-04-10T21:41:30.455Z,9.82
2023-04-10T21:44:00.351Z,9.94
2023-04-10T21:46:28.079Z,9.75
2023-04-10T21:48:56.000Z,9.91
2023-04-10T21:51:25.662Z,10.05
2023-04-10T21:53:55.769Z,9.81
2023-04-10T21:56:23.390Z,10.05
2023-04-10T21:58:52.965Z,9.91
2023-04-10T22:01:20.917Z,10.20
2023-04-10T22:03:48.683Z,10.19
2023-04-10T22:06:16.380Z,10.00
2023-04-10T22:08:44.713Z,10.13
2023-04-10T22:11:13.868Z,10.35
2023-04-10T22:13:41.524Z,10.23
2023-04-10T22:16:09.325Z,10.23
2023-04-10T22:18:36.955Z,10.22
2023-04-10T22:21:04.625Z,10.35
2023-04-10T22:23:32.420Z,10.12
2023-04-10T22:26:00.559Z,10.19
2023-04-10T22:28:29.992Z,10.06
2023-04-10T22:30:57.616Z,10.01
2023-04-10T22:33:25.343Z,10.06
2023-04-10T22:35:53.225Z,10.07
2023-04-10T22:38:20.926Z,9.96
2023-04-10T22:40:48.610Z,9.97
2023-04-10T22:43:16.256Z,9.99
2023-04-10T22:45:45.302Z,9.99
2023-04-10T22:48:13.050Z,10.07
2023-04-10T22:50:41.268Z,9.97
2023-04-10T22:53:10.001Z,9.78
2023-04-10T22:55:38.146Z,9.80
2023-04-10T22:58:05.880Z,9.87
2023-04-10T23:00:33.704Z,9.85
2023-04-10T23:03:02.950Z,9.89
2023-04-10T23:05:32.975Z,9.92
2023-04-10T23:08:00.730Z,9.98
2023-04-10T23:10:28.444Z,10.03
2023-04-10T23:12:56.104Z,9.94
2023-04-10T23:15:23.683Z,10.05
2023-04-10T23:17:51.428Z,10.11
2023-04-10T23:20:20.610Z,9.98
2023-04-10T23:22:48.218Z,9.98
2023-04-10T23:25:15.841Z,9.82
2023-04-10T23:27:43.521Z,9.75
2023-04-10T23:30:11.449Z,9.92
2023-04-10T23:32:39.150Z,9.94
2023-04-10T23:35:07.278Z,10.08
2023-04-10T23:37:36.352Z,9.91
2023-04-10T23:40:04.106Z,9.85
2023-04-10T23:42:31.753Z,9.76
2023-04-10T23:44:59.546Z,9.82
2023-04-10T23:47:27.275Z,9.74
2023-04-10T23:49:55.277Z,9.77
2023-04-10T23:52:22.920Z,9.90
2023-04-10T23:54:51.860Z,9.84
2023-04-10T23:57:19.494Z,9.66
2023-04-10T23:59:47.134Z,9.79
